createdAt,value
2018-12-25T00:00:06.898Z,84.55
2018-12-25T00:02:58.980Z,84.49
2018-12-25T00:05:42.368Z,84.27
2018-12-25T00:08:32.886Z,84.70
2018-12-25T00:11:16.525Z,84.43
2018-12-25T00:14:07.081Z,83.74
2018-12-25T00:16:50.363Z,84.02
2018-12-25T00:19:40.841Z,84.14
2018-12-25T00:22:24.043Z,84.08
2018-12-25T00:25:14.557Z,84.26
2018-12-25T00:27:56.196Z,84.70
2018-12-25T00:30:46.724Z,83.94
2018-12-25T00:33:29.666Z,84.66
2018-12-25T00:36:20.182Z,83.47
2018-12-25T00:39:04.970Z,83.83
2018-12-25T00:41:55.478Z,83.48
2018-12-25T00:44:38.718Z,84.17
2018-12-25T00:47:29.173Z,83.81
2018-12-25T00:50:12.292Z,83.82
2018-12-25T00:55:15.677Z,83.83
2018-12-25T00:57:57.156Z,84.01
2018-12-25T01:00:39.950Z,83.95
2018-12-25T01:03:30.475Z,83.38
2018-12-25T01:06:13.501Z,84.04
2018-12-25T01:12:04.771Z,83.38
2018-12-25T01:14:47.551Z,83.97
2018-12-25T01:17:38.105Z,82.95
2018-12-25T01:20:21.365Z,83.08
2018-12-25T01:23:11.841Z,83.99
2018-12-25T01:25:55.163Z,83.55
2018-12-25T01:28:45.699Z,84.19
2018-12-25T01:31:34.997Z,83.96
2018-12-25T01:34:25.475Z,83.98
2018-12-25T01:37:08.859Z,83.76
2018-12-25T01:39:59.413Z,83.78
2018-12-25T01:42:42.883Z,84.03
2018-12-25T01:45:33.457Z,84.29
2018-12-25T01:48:16.819Z,84.69
2018-12-25T01:51:07.390Z,84.74
2018-12-25T01:53:50.791Z,84.19
2018-12-25T01:56:41.352Z,84.38
2018-12-25T01:59:25.829Z,84.20
2018-12-25T02:02:09.069Z,83.94
2018-12-25T02:04:51.899Z,85.08
2018-12-25T02:07:34.879Z,84.04
2018-12-25T02:10:25.492Z,84.86
2018-12-25T02:13:08.503Z,84.50
2018-12-25T02:15:59.015Z,84.96
2018-12-25T02:18:42.418Z,85.11
2018-12-25T02:21:33.034Z,85.08
2018-12-25T02:24:15.813Z,85.53
2018-12-25T02:27:06.271Z,85.18
2018-12-25T02:29:49.765Z,85.57
2018-12-25T02:32:40.391Z,84.71
2018-12-25T02:35:22.049Z,84.85
2018-12-25T02:38:12.555Z,85.44
2018-12-25T02:40:43.993Z,85.69
2018-12-25T02:43:34.496Z,85.66
2018-12-25T02:46:15.994Z,85.58
2018-12-25T02:49:06.439Z,86.69
2018-12-25T02:51:49.891Z,86.02
2018-12-25T02:54:40.411Z,86.01
2018-12-25T02:57:25.164Z,86.02
2018-12-25T03:00:08.642Z,85.97
2018-12-25T03:02:59.225Z,86.60
2018-12-25T03:05:42.751Z,86.15
2018-12-25T03:08:33.294Z,86.02
2018-12-25T03:11:16.555Z,85.92
2018-12-25T03:14:07.127Z,85.32
2018-12-25T03:16:49.891Z,86.48
2018-12-25T03:19:40.479Z,86.00
2018-12-25T03:22:26.315Z,85.98
2018-12-25T03:25:16.874Z,85.61
2018-12-25T03:27:59.635Z,84.98
2018-12-25T03:30:50.193Z,84.97
2018-12-25T03:33:33.670Z,85.35
2018-12-25T03:36:17.054Z,85.74
2018-12-25T03:39:08.129Z,85.06
2018-12-25T03:41:55.729Z,85.52
2018-12-25T03:44:46.258Z,85.36
2018-12-25T03:47:27.841Z,85.76
2018-12-25T03:50:18.354Z,86.05
2018-12-25T03:53:03.301Z,85.88
2018-12-25T03:55:53.743Z,85.82
2018-12-25T03:58:35.299Z,86.05
2018-12-25T04:01:18.118Z,86.24
2018-12-25T04:04:08.622Z,86.13
2018-12-25T04:06:52.042Z,85.62
2018-12-25T04:09:42.580Z,85.42
2018-12-25T04:12:27.298Z,86.34
2018-12-25T04:15:17.838Z,86.92
2018-12-25T04:18:01.232Z,86.37
2018-12-25T04:20:51.814Z,85.62
2018-12-25T04:23:34.755Z,85.19
2018-12-25T04:26:25.324Z,84.78
2018-12-25T04:29:08.630Z,85.15
2018-12-25T04:31:59.184Z,84.92
2018-12-25T04:34:42.522Z,84.68
2018-12-25T04:37:24.220Z,85.18
2018-12-25T04:40:14.690Z,84.90
2018-12-25T04:42:57.746Z,84.83
2018-12-25T04:48:50.548Z,85.19
2018-12-25T04:51:41.092Z,84.97
2018-12-25T04:54:23.832Z,84.92
2018-12-25T04:57:14.364Z,85.49
2018-12-25T04:59:57.691Z,85.12
2018-12-25T05:02:48.208Z,85.07
2018-12-25T05:05:31.650Z,85.21
2018-12-25T05:08:22.169Z,85.46
2018-12-25T05:11:05.350Z,85.09
2018-12-25T05:13:55.890Z,85.59
2018-12-25T05:16:39.363Z,84.82
2018-12-25T05:19:29.907Z,85.77
2018-12-25T05:22:13.300Z,85.22
2018-12-25T05:25:04.796Z,85.01
2018-12-25T05:27:47.564Z,85.04
2018-12-25T05:30:38.085Z,85.23
2018-12-25T05:33:21.492Z,84.93
2018-12-25T05:36:12.008Z,84.84
2018-12-25T05:38:55.150Z,85.54
2018-12-25T05:41:45.668Z,84.94
2018-12-25T05:44:29.130Z,84.93
2018-12-25T05:47:19.674Z,84.51
2018-12-25T05:50:03.597Z,84.46
2018-12-25T05:52:55.072Z,84.63
2018-12-25T05:55:37.919Z,84.60
2018-12-25T05:58:28.446Z,84.36
2018-12-25T06:01:11.991Z,84.28
2018-12-25T06:04:02.429Z,83.86
2018-12-25T06:06:45.403Z,83.88
2018-12-25T06:09:35.901Z,83.86
2018-12-25T06:12:19.248Z,84.26
2018-12-25T06:15:09.765Z,84.46
2018-12-25T06:17:53.108Z,84.77
2018-12-25T06:20:43.866Z,84.13
2018-12-25T06:23:26.669Z,84.65
2018-12-25T06:29:19.348Z,83.93
2018-12-25T06:32:00.941Z,83.53
2018-12-25T06:34:42.509Z,84.36
2018-12-25T06:37:33.029Z,83.72
2018-12-25T06:40:16.401Z,83.77
2018-12-25T06:43:06.917Z,84.51
2018-12-25T06:45:50.239Z,84.56
2018-12-25T06:48:40.764Z,84.11
2018-12-25T06:51:24.508Z,85.07
2018-12-25T06:54:15.031Z,84.26
2018-12-25T06:56:58.457Z,84.57
2018-12-25T06:59:49.001Z,82.50
2018-12-25T07:02:31.873Z,81.83
2018-12-25T07:05:22.398Z,83.57
2018-12-25T07:08:05.722Z,83.37
2018-12-25T07:13:57.941Z,83.72
2018-12-25T07:16:48.477Z,83.73
2018-12-25T07:19:31.778Z,83.50
2018-12-25T07:22:22.218Z,83.23
2018-12-25T07:25:05.466Z,83.07
2018-12-25T07:27:48.507Z,83.14
2018-12-25T07:30:39.028Z,83.68
2018-12-25T07:33:20.639Z,83.85
2018-12-25T07:36:11.178Z,83.48
2018-12-25T07:38:52.682Z,84.26
2018-12-25T07:41:43.368Z,85.21
2018-12-25T07:44:26.705Z,84.48
2018-12-25T07:47:11.259Z,84.55
2018-12-25T07:50:01.925Z,83.75
2018-12-25T07:52:45.448Z,83.96
2018-12-25T07:55:35.974Z,83.41
2018-12-25T07:58:19.233Z,84.20
2018-12-25T08:01:00.700Z,83.92
2018-12-25T08:03:44.005Z,83.99
2018-12-25T08:06:34.603Z,84.45
2018-12-25T08:09:16.122Z,83.02
2018-12-25T08:12:06.654Z,83.27
2018-12-25T08:14:49.729Z,82.90
2018-12-25T08:17:40.255Z,83.66
2018-12-25T08:20:23.495Z,83.26
2018-12-25T08:23:06.313Z,83.38
2018-12-25T08:25:56.868Z,83.68
2018-12-25T08:28:40.344Z,83.70
2018-12-25T08:31:30.885Z,82.61
2018-12-25T08:34:12.419Z,83.07
2018-12-25T08:37:02.942Z,83.71
2018-12-25T08:39:45.702Z,83.36
2018-12-25T08:45:58.859Z,82.72
2018-12-25T08:48:41.947Z,82.87
2018-12-25T08:51:37.584Z,83.02
2018-12-25T08:54:26.311Z,82.53
2018-12-25T08:57:16.878Z,82.63
2018-12-25T08:59:59.894Z,82.55
2018-12-25T09:02:50.352Z,83.09
2018-12-25T09:05:33.737Z,82.44
2018-12-25T09:08:24.297Z,83.83
2018-12-25T09:11:07.679Z,83.99
2018-12-25T09:13:58.287Z,82.96
2018-12-25T09:16:41.663Z,84.30
2018-12-25T09:19:26.350Z,83.84
2018-12-25T09:22:16.867Z,83.81
2018-12-25T09:25:00.082Z,83.20
2018-12-25T09:27:50.664Z,83.41
2018-12-25T09:30:33.815Z,83.66
2018-12-25T09:36:34.181Z,83.31
2018-12-25T09:39:17.413Z,82.24
2018-12-25T09:42:07.989Z,80.95
2018-12-25T09:44:51.338Z,81.50
2018-12-25T09:47:41.871Z,80.92
2018-12-25T09:50:25.138Z,80.62
2018-12-25T09:53:15.660Z,81.54
2018-12-25T09:55:58.467Z,82.88
2018-12-25T09:58:49.111Z,82.63
2018-12-25T10:01:32.547Z,81.30
2018-12-25T10:04:16.142Z,81.45
2018-12-25T10:06:59.426Z,81.33
2018-12-25T10:09:49.954Z,81.21
2018-12-25T10:12:33.139Z,79.67
2018-12-25T10:15:23.751Z,80.50
2018-12-25T10:18:14.287Z,79.56
2018-12-25T10:20:57.071Z,80.48
2018-12-25T10:23:47.603Z,79.87
2018-12-25T10:26:36.778Z,79.95
2018-12-25T10:29:27.218Z,81.23
2018-12-25T10:32:10.300Z,81.08
2018-12-25T10:35:00.812Z,80.30
2018-12-25T10:37:44.231Z,80.22
2018-12-25T10:40:34.776Z,80.60
2018-12-25T10:43:17.941Z,80.42
2018-12-25T10:46:08.463Z,79.92
2018-12-25T10:48:51.707Z,79.84
2018-12-25T10:51:42.294Z,80.57
2018-12-25T10:54:25.646Z,78.66
2018-12-25T10:57:16.189Z,80.52
2018-12-25T10:59:59.648Z,80.46
2018-12-25T11:02:43.238Z,79.97
2018-12-25T11:05:26.224Z,80.50
2018-12-25T11:08:16.775Z,80.59
2018-12-25T11:11:00.244Z,79.53
2018-12-25T11:13:51.486Z,79.93
2018-12-25T11:16:34.682Z,79.92
2018-12-25T11:19:25.215Z,79.31
2018-12-25T11:22:09.474Z,78.98
2018-12-25T11:25:00.248Z,79.42
2018-12-25T11:28:03.673Z,78.98
2018-12-25T11:30:35.056Z,79.00
2018-12-25T11:33:06.524Z,79.25
2018-12-25T11:35:37.976Z,80.29
2018-12-25T11:38:09.555Z,79.83
2018-12-25T11:40:41.054Z,80.12
2018-12-25T11:43:12.553Z,80.76
2018-12-25T11:45:44.005Z,80.31
2018-12-25T11:48:15.570Z,79.58
2018-12-25T11:50:46.991Z,79.53
2018-12-25T11:53:18.426Z,80.60
2018-12-25T11:55:49.921Z,78.59
2018-12-25T11:58:21.399Z,79.49
2018-12-25T12:00:52.922Z,79.87
2018-12-25T12:03:24.402Z,78.95
2018-12-25T12:05:55.890Z,78.88
2018-12-25T12:08:27.343Z,78.82
2018-12-25T12:10:58.819Z,77.82
2018-12-25T12:13:30.303Z,78.32
2018-12-25T12:16:01.760Z,78.25
2018-12-25T12:18:33.308Z,79.21
2018-12-25T12:21:23.855Z,78.56
2018-12-25T12:24:05.406Z,77.32
2018-12-25T12:26:55.989Z,77.08
2018-12-25T12:29:37.573Z,77.39
2018-12-25T12:32:28.109Z,77.67
2018-12-25T12:35:11.834Z,77.54
2018-12-25T12:41:04.682Z,75.77
2018-12-25T12:43:56.218Z,76.34
2018-12-25T12:46:38.995Z,76.66
2018-12-25T12:49:31.292Z,77.25
2018-12-25T12:52:23.534Z,76.78
2018-12-25T12:55:14.117Z,77.86
2018-12-25T12:57:57.527Z,78.11
2018-12-25T13:00:48.094Z,78.10
2018-12-25T13:03:31.385Z,76.50
2018-12-25T13:06:14.852Z,77.51
2018-12-25T13:08:57.663Z,77.63
2018-12-25T13:11:40.545Z,76.33
2018-12-25T13:14:31.123Z,77.07
2018-12-25T13:17:13.886Z,77.45
2018-12-25T13:20:04.714Z,77.50
2018-12-25T13:22:53.833Z,76.93
2018-12-25T13:25:38.817Z,76.30
2018-12-25T13:28:22.076Z,76.98
2018-12-25T13:31:06.770Z,76.81
2018-12-25T13:36:59.891Z,77.69
2018-12-25T13:39:50.570Z,78.18
2018-12-25T13:42:34.072Z,77.54
2018-12-25T13:45:24.646Z,78.24
2018-12-25T13:48:07.940Z,77.39
2018-12-25T13:54:18.757Z,77.99
2018-12-25T13:57:00.225Z,76.52
2018-12-25T14:03:11.019Z,76.62
2018-12-25T14:05:54.178Z,77.66
2018-12-25T14:08:37.794Z,78.71
2018-12-25T14:11:28.323Z,78.92
2018-12-25T14:14:11.904Z,78.06
2018-12-25T14:17:02.447Z,78.65
2018-12-25T14:19:45.938Z,77.95
2018-12-25T14:22:29.445Z,77.26
2018-12-25T14:25:19.942Z,79.15
2018-12-25T14:28:03.378Z,78.61
2018-12-25T14:30:53.920Z,77.74
2018-12-25T14:33:37.187Z,78.51
2018-12-25T14:36:27.782Z,79.55
2018-12-25T14:39:11.378Z,78.52
2018-12-25T14:42:01.878Z,77.84
2018-12-25T14:44:46.432Z,79.29
2018-12-25T14:47:36.978Z,79.39
2018-12-25T14:50:20.416Z,79.11
2018-12-25T14:53:04.065Z,79.47
2018-12-25T14:55:54.642Z,79.82
2018-12-25T14:58:37.841Z,79.25
2018-12-25T15:01:28.376Z,79.60
2018-12-25T15:04:11.882Z,79.27
2018-12-25T15:07:02.437Z,79.96
2018-12-25T15:09:45.749Z,79.15
2018-12-25T15:12:36.328Z,79.20
2018-12-25T15:15:19.312Z,78.99
2018-12-25T15:18:09.906Z,79.20
2018-12-25T15:20:53.079Z,79.43
2018-12-25T15:23:36.803Z,79.39
2018-12-25T15:29:29.021Z,79.43
2018-12-25T15:32:19.588Z,80.04
2018-12-25T15:35:02.528Z,80.07
2018-12-25T15:37:53.100Z,79.83
2018-12-25T15:40:36.548Z,79.97
2018-12-25T15:43:27.105Z,80.59
2018-12-25T15:46:10.144Z,80.56
2018-12-25T15:49:02.529Z,80.94
2018-12-25T15:51:53.094Z,81.77
2018-12-25T15:54:36.447Z,81.23
2018-12-25T15:57:26.986Z,81.38
2018-12-25T16:00:15.219Z,81.45
2018-12-25T16:03:05.775Z,82.29
2018-12-25T16:05:49.190Z,81.93
2018-12-25T16:08:32.179Z,82.52
2018-12-25T16:11:41.590Z,82.40
2018-12-25T16:14:24.682Z,82.96
2018-12-25T16:17:34.103Z,82.70
2018-12-25T16:20:17.601Z,83.01
2018-12-25T16:23:08.156Z,83.00
2018-12-25T16:25:51.454Z,83.02
2018-12-25T16:28:42.009Z,83.13
2018-12-25T16:31:25.322Z,83.36
2018-12-25T16:34:15.913Z,83.92
2018-12-25T16:36:59.442Z,83.62
2018-12-25T16:39:50.020Z,83.86
2018-12-25T16:42:33.490Z,84.06
2018-12-25T16:45:24.095Z,84.14
2018-12-25T16:48:07.325Z,83.72
2018-12-25T16:53:59.516Z,84.46
2018-12-25T16:56:42.966Z,84.60
2018-12-25T16:59:33.474Z,84.65
2018-12-25T17:02:16.821Z,85.57
2018-12-25T17:05:07.359Z,84.86
2018-12-25T17:07:50.654Z,84.35
2018-12-25T17:10:33.609Z,84.73
2018-12-25T17:13:19.771Z,84.05
2018-12-25T17:19:11.759Z,86.35
2018-12-25T17:21:55.117Z,86.54
2018-12-25T17:24:45.724Z,86.94
2018-12-25T17:27:28.918Z,84.91
2018-12-25T17:30:19.462Z,84.67
2018-12-25T17:33:02.336Z,84.67
2018-12-25T17:35:52.902Z,85.17
2018-12-25T17:38:36.271Z,85.22
2018-12-25T17:41:26.812Z,84.92
2018-12-25T17:44:10.382Z,84.71
2018-12-25T17:50:02.947Z,86.82
2018-12-25T17:52:45.892Z,87.33
2018-12-25T17:59:02.955Z,87.03
2018-12-25T18:01:45.643Z,85.73
2018-12-25T18:04:28.915Z,86.39
2018-12-25T18:10:32.054Z,85.67
2018-12-25T18:13:15.437Z,85.12
2018-12-25T18:19:45.335Z,85.26
2018-12-25T18:22:28.570Z,85.31
2018-12-25T18:25:12.036Z,85.85
2018-12-25T18:28:02.644Z,85.54
2018-12-25T18:30:46.315Z,85.37
2018-12-25T18:37:03.747Z,86.81
2018-12-25T18:40:06.000Z,87.52
2018-12-25T18:42:49.057Z,87.68
2018-12-25T18:48:59.383Z,87.53
2018-12-25T18:51:42.600Z,86.19
2018-12-25T18:54:27.909Z,85.68
2018-12-25T18:57:17.939Z,85.39
2018-12-25T19:00:01.284Z,85.52
2018-12-25T19:02:52.056Z,86.04
2018-12-25T19:05:35.188Z,85.40
2018-12-25T19:11:40.106Z,85.73
2018-12-25T19:14:23.044Z,85.81
2018-12-25T19:17:06.445Z,86.46
2018-12-25T19:19:57.924Z,85.77
2018-12-25T19:22:39.479Z,86.06
2018-12-25T19:25:30.033Z,86.74
2018-12-25T19:28:13.387Z,86.71
2018-12-25T19:31:06.717Z,86.13
2018-12-25T19:33:49.482Z,85.84
2018-12-25T19:36:40.026Z,86.30
2018-12-25T19:39:23.247Z,85.69
2018-12-25T19:42:13.769Z,85.78
2018-12-25T19:44:55.313Z,87.19
2018-12-25T19:47:45.856Z,86.68
2018-12-25T19:50:30.775Z,86.52
2018-12-25T19:56:48.285Z,85.94
2018-12-25T19:59:31.588Z,86.43
2018-12-25T20:02:41.293Z,85.58
2018-12-25T20:05:43.540Z,85.80
2018-12-25T20:09:12.301Z,86.24
2018-12-25T20:12:14.882Z,86.05
2018-12-25T20:15:43.654Z,85.52
2018-12-25T20:18:46.313Z,85.15
2018-12-25T20:22:15.131Z,85.87
2018-12-25T20:25:31.848Z,85.54
2018-12-25T20:28:45.500Z,85.20
2018-12-25T20:31:40.167Z,84.92
2018-12-25T20:35:08.937Z,84.98
2018-12-25T20:37:59.551Z,84.90
2018-12-25T20:41:28.330Z,84.65
2018-12-25T20:44:30.716Z,86.27
2018-12-25T20:47:59.488Z,85.41
2018-12-25T20:51:01.843Z,85.61
2018-12-25T20:54:30.605Z,85.98
2018-12-25T20:57:32.956Z,85.57
2018-12-25T21:00:34.890Z,85.00
2018-12-25T21:03:37.085Z,84.89
2018-12-25T21:07:05.843Z,85.35
2018-12-25T21:10:14.056Z,86.27
2018-12-25T21:13:42.828Z,85.00
2018-12-25T21:16:44.561Z,85.33
2018-12-25T21:20:13.379Z,85.14
2018-12-25T21:23:15.998Z,84.53
2018-12-25T21:26:44.760Z,84.62
2018-12-25T21:29:28.103Z,85.21
2018-12-25T21:32:18.689Z,86.00
2018-12-25T21:35:50.764Z,85.57
2018-12-25T21:38:41.380Z,85.87
2018-12-25T21:41:24.836Z,85.73
2018-12-25T21:44:15.476Z,85.38
2018-12-25T21:46:58.570Z,85.59
2018-12-25T21:49:49.154Z,86.81
2018-12-25T21:52:32.391Z,86.88
2018-12-25T21:55:22.943Z,85.68
2018-12-25T21:58:05.752Z,84.82
2018-12-25T22:00:49.184Z,84.89
2018-12-25T22:03:30.767Z,84.70
2018-12-25T22:06:12.339Z,84.27
2018-12-25T22:12:25.820Z,85.83
2018-12-25T22:15:16.364Z,86.02
2018-12-25T22:17:59.712Z,86.23
2018-12-25T22:20:50.262Z,85.06
2018-12-25T22:23:33.061Z,85.22
2018-12-25T22:26:23.586Z,86.27
2018-12-25T22:29:06.308Z,85.54
2018-12-25T22:31:56.878Z,85.45
2018-12-25T22:34:40.299Z,85.73
2018-12-25T22:37:30.746Z,85.55
2018-12-25T22:40:14.054Z,85.57
2018-12-25T22:43:04.705Z,86.18
2018-12-25T22:45:48.342Z,85.26
2018-12-25T22:48:38.927Z,85.53
2018-12-25T22:51:22.139Z,84.96
2018-12-25T22:54:12.680Z,85.40
2018-12-25T22:56:56.220Z,86.87
2018-12-25T22:59:46.773Z,86.62
2018-12-25T23:02:37.356Z,86.63
2018-12-25T23:05:20.809Z,85.83
2018-12-25T23:08:30.240Z,85.35
2018-12-25T23:11:13.013Z,85.35
2018-12-25T23:13:56.323Z,86.95
2018-12-25T23:16:46.847Z,86.74
2018-12-25T23:19:30.216Z,85.77
2018-12-25T23:22:20.739Z,85.28
2018-12-25T23:25:04.353Z,85.49
2018-12-25T23:27:54.953Z,85.51
2018-12-25T23:30:38.379Z,85.15
2018-12-25T23:33:28.911Z,85.20
2018-12-25T23:36:11.959Z,85.03
2018-12-25T23:39:02.532Z,85.22
2018-12-25T23:41:45.625Z,85.05
2018-12-25T23:44:36.083Z,85.15
2018-12-25T23:47:19.207Z,85.23
2018-12-25T23:50:09.735Z,84.74
2018-12-25T23:52:53.134Z,85.54
2018-12-25T23:55:43.666Z,84.75
2018-12-25T23:58:26.977Z,85.03
